Time;durP1;ratioP1;P1;durP2;ratioP2;P2;SDS_P1;SDS_P2;PMS_P1;PMS_P2;Temp;Humidity;BMP_temperature;BMP_pressure;BME280_temperature;BME280_humidity;BME280_pressure;Samples;Min_cycle;Max_cycle;Signal;HPM_P1;HPM_P2
2022/01/13 00:02:18;;;;;;;20.27;12.37;;;0.20;99.90;;;;;;4988627;28;20556;-89
2022/01/13 00:04:43;;;;;;;20.00;12.57;;;0.80;99.90;;;;;;4993412;28;20191;-88
2022/01/13 00:07:10;;;;;;;23.17;11.37;;;0.50;99.90;;;;;;4993293;28;20191;-87
2022/01/13 00:09:36;;;;;;;20.85;10.60;;;0.60;99.90;;;;;;4985294;28;20195;-88
2022/01/13 00:12:02;;;;;;;25.08;13.32;;;0.50;99.90;;;;;;4988270;28;20199;-88
2022/01/13 00:24:43;;;;;;;32.35;17.35;;;0.40;99.90;;;;;;4983017;28;20241;-88
2022/01/13 00:27:11;;;;;;;31.88;16.45;;;0.50;99.90;;;;;;4983059;28;20183;-87
2022/01/13 00:29:41;;;;;;;32.55;19.23;;;0.50;99.90;;;;;;4980932;28;20223;-87
2022/01/13 00:32:08;;;;;;;31.90;17.45;;;0.30;99.90;;;;;;4987340;28;20207;-87
2022/01/13 00:34:33;;;;;;;42.67;21.40;;;0.30;99.90;;;;;;4982988;28;20203;-88
2022/01/13 00:36:59;;;;;;;39.00;21.27;;;0.00;99.90;;;;;;4996125;28;21249;-86
2022/01/13 00:39:25;;;;;;;36.47;20.27;;;;;;;;;;4977563;28;20208;-85
2022/01/13 00:41:51;;;;;;;35.93;20.40;;;-0.20;99.90;;;;;;4983079;28;20183;-86
2022/01/13 00:44:20;;;;;;;40.13;23.27;;;-0.30;99.90;;;;;;4979430;28;20465;-86
2022/01/13 00:46:48;;;;;;;38.47;21.15;;;-0.30;99.90;;;;;;4984895;28;20433;-85
2022/01/13 00:49:15;;;;;;;46.42;22.65;;;-0.30;99.90;;;;;;4983968;28;20179;-86
2022/01/13 00:51:41;;;;;;;37.35;22.08;;;-0.30;99.90;;;;;;4981046;28;21128;-85
2022/01/13 00:54:08;;;;;;;43.35;22.40;;;-0.20;99.90;;;;;;4981797;28;20182;-85
2022/01/13 00:56:35;;;;;;;40.75;21.02;;;-0.20;99.90;;;;;;4982173;28;20676;-86
2022/01/13 00:59:03;;;;;;;44.00;23.17;;;-0.30;99.90;;;;;;4976329;28;20278;-87
2022/01/13 01:01:29;;;;;;;43.63;22.65;;;-0.20;99.90;;;;;;4979599;28;20195;-86
2022/01/13 01:03:54;;;;;;;42.63;21.87;;;-0.10;99.90;;;;;;4975303;28;20184;-87
2022/01/13 01:06:20;;;;;;;37.60;21.30;;;;;;;;;;4986009;28;20275;-88
2022/01/13 01:08:46;;;;;;;45.67;22.90;;;;;;;;;;4998969;28;20187;-89
2022/01/13 01:11:12;;;;;;;39.85;21.40;;;0.00;99.90;;;;;;4997963;28;20417;-89
2022/01/13 01:13:39;;;;;;;41.03;23.70;;;;;;;;;;4986599;28;20187;-89
2022/01/13 01:16:08;;;;;;;40.75;22.80;;;0.20;99.90;;;;;;5000615;28;20321;-87
2022/01/13 01:23:56;;;;;;;39.35;20.98;;;0.40;99.90;;;;;;4988837;28;20560;-87
2022/01/13 01:31:54;;;;;;;35.03;19.88;;;0.70;99.90;;;;;;4997770;28;20272;-88
2022/01/13 01:37:15;;;;;;;35.70;18.75;;;0.70;99.90;;;;;;4994604;28;20195;-89
2022/01/13 01:39:48;;;;;;;33.20;18.00;;;0.50;99.90;;;;;;4982911;28;20188;-89
2022/01/13 01:42:14;;;;;;;34.30;20.27;;;0.40;99.90;;;;;;4980416;28;20176;-88
2022/01/13 01:44:44;;;;;;;38.10;21.65;;;;;;;;;;4981498;28;20196;-90
2022/01/13 01:47:16;;;;;;;33.88;18.63;;;0.30;99.90;;;;;;4980935;28;20187;-89
2022/01/13 01:49:46;;;;;;;33.83;17.88;;;0.40;99.90;;;;;;4980983;28;20183;-90
2022/01/13 01:52:15;;;;;;;35.97;19.25;;;0.50;99.90;;;;;;4981525;28;20168;-89
2022/01/13 01:54:40;;;;;;;44.47;22.13;;;;;;;;;;4980099;28;20192;-88
2022/01/13 01:57:07;;;;;;;35.20;18.80;;;;;;;;;;4986657;28;20232;-87
2022/01/13 01:59:37;;;;;;;30.92;17.05;;;0.50;99.90;;;;;;4977702;28;20442;-87
2022/01/13 02:02:03;;;;;;;36.70;18.83;;;0.50;99.90;;;;;;4981564;28;20198;-88
2022/01/13 02:04:28;;;;;;;38.88;19.98;;;0.40;99.90;;;;;;4979731;28;20203;-88
2022/01/13 02:06:56;;;;;;;31.43;19.23;;;0.40;99.90;;;;;;4983208;28;20183;-87
2022/01/13 02:09:22;;;;;;;39.65;21.98;;;0.40;99.90;;;;;;4988425;28;20194;-87
2022/01/13 02:11:53;;;;;;;37.15;21.85;;;0.30;99.90;;;;;;4978742;28;20285;-86
2022/01/13 02:16:52;;;;;;;35.50;19.92;;;0.20;99.90;;;;;;4979514;28;20754;-86
2022/01/13 02:19:19;;;;;;;35.83;21.38;;;0.20;99.90;;;;;;4988009;28;20186;-88
2022/01/13 02:21:45;;;;;;;42.83;20.40;;;0.00;99.90;;;;;;4986093;28;20172;-88
2022/01/13 02:24:13;;;;;;;37.50;19.92;;;-0.50;99.90;;;;;;4983602;28;20895;-88
2022/01/13 02:26:40;;;;;;;38.70;20.73;;;-0.50;99.90;;;;;;4982730;28;20183;-88
2022/01/13 02:29:06;;;;;;;35.15;21.02;;;-0.60;99.90;;;;;;4987935;28;20188;-88
2022/01/13 02:31:33;;;;;;;45.47;21.10;;;-0.70;99.90;;;;;;4979416;28;20275;-88
2022/01/13 02:33:58;;;;;;;33.38;20.33;;;1.40;99.90;;;;;;4985262;28;20192;-89
2022/01/13 02:36:27;;;;;;;42.07;22.67;;;-0.90;99.90;;;;;;4984962;28;20236;-88
2022/01/13 02:38:54;;;;;;;39.88;19.83;;;-0.90;99.90;;;;;;4990523;28;20754;-87
2022/01/13 02:41:24;;;;;;;40.13;20.35;;;-1.00;99.90;;;;;;4984935;28;20222;-89
2022/01/13 02:43:52;;;;;;;38.90;18.70;;;;;;;;;;4987794;28;20758;-88
2022/01/13 02:49:05;;;;;;;40.03;20.67;;;-1.10;99.90;;;;;;4984621;28;20168;-88
2022/01/13 02:51:32;;;;;;;31.30;18.20;;;-1.10;99.90;;;;;;4978695;28;20222;-87
2022/01/13 02:53:58;;;;;;;38.50;18.08;;;-1.20;99.90;;;;;;4981008;28;20208;-90
2022/01/13 02:56:24;;;;;;;36.22;19.80;;;;;;;;;;4991900;28;20764;-88
2022/01/13 02:58:49;;;;;;;31.77;17.97;;;-1.20;99.90;;;;;;4995947;28;20195;-89
2022/01/13 03:01:15;;;;;;;34.43;17.73;;;-1.30;99.90;;;;;;4997291;28;20572;-89
2022/01/13 03:03:42;;;;;;;35.77;18.83;;;;;;;;;;4991664;28;20750;-87
2022/01/13 03:06:10;;;;;;;30.60;17.58;;;-1.30;99.90;;;;;;4984302;28;20463;-89
2022/01/13 03:08:37;;;;;;;29.70;17.33;;;-1.40;99.90;;;;;;5002059;28;21039;-87
2022/01/13 03:11:03;;;;;;;32.58;18.05;;;-1.50;99.90;;;;;;5001100;28;20186;-87
2022/01/13 03:13:30;;;;;;;36.85;18.60;;;-1.50;99.90;;;;;;4984388;28;20284;-88
2022/01/13 03:15:55;;;;;;;30.42;17.15;;;-1.50;99.90;;;;;;4984057;28;20206;-87
2022/01/13 03:18:21;;;;;;;34.90;17.97;;;-1.70;99.90;;;;;;4987781;28;20186;-87
2022/01/13 03:20:46;;;;;;;32.47;17.30;;;-1.80;99.90;;;;;;4988826;28;20198;-87
2022/01/13 03:23:17;;;;;;;31.27;16.57;;;;;;;;;;4986358;28;20195;-87
2022/01/13 03:25:45;;;;;;;36.03;18.77;;;-2.00;99.90;;;;;;4997704;28;20204;-87
2022/01/13 03:28:16;;;;;;;33.97;19.83;;;-2.10;99.90;;;;;;4984704;28;20191;-88
2022/01/13 03:30:44;;;;;;;39.25;20.15;;;-2.20;99.90;;;;;;4987245;28;20184;-87
2022/01/13 03:33:11;;;;;;;42.90;21.02;;;-2.20;99.90;;;;;;4987327;28;20207;-86
2022/01/13 03:35:45;;;;;;;41.55;20.13;;;-2.20;99.90;;;;;;4988304;28;20207;-87
2022/01/13 03:38:11;;;;;;;51.35;22.40;;;-2.10;99.90;;;;;;4989962;28;20167;-85
2022/01/13 03:40:37;;;;;;;44.03;19.73;;;-2.00;99.90;;;;;;4995476;28;20228;-84
2022/01/13 03:43:04;;;;;;;46.90;21.93;;;-2.00;99.90;;;;;;4981724;28;20898;-85
2022/01/13 03:45:32;;;;;;;45.90;22.00;;;;;;;;;;4986876;28;20486;-85
2022/01/13 03:47:58;;;;;;;39.42;20.67;;;-1.90;99.90;;;;;;5000646;28;20175;-87
2022/01/13 03:50:24;;;;;;;39.75;20.55;;;-1.90;99.90;;;;;;4985853;28;20215;-85
2022/01/13 03:53:01;;;;;;;42.07;21.40;;;-2.00;99.90;;;;;;4980441;28;20184;-86
2022/01/13 03:55:36;;;;;;;48.67;24.45;;;-2.00;99.90;;;;;;4993285;28;20561;-86
2022/01/13 03:58:39;;;;;;;34.42;19.90;;;-2.00;99.90;;;;;;4979610;28;20178;-85
2022/01/13 04:01:39;;;;;;;34.72;18.92;;;-2.10;99.90;;;;;;4978539;28;20597;-86
2022/01/13 04:04:04;;;;;;;42.25;20.27;;;-2.30;99.90;;;;;;4984563;28;20182;-86
2022/01/13 04:06:33;;;;;;;37.13;19.83;;;-2.30;99.90;;;;;;4982126;28;20191;-85
2022/01/13 04:08:58;;;;;;;43.38;22.20;;;-2.10;99.90;;;;;;4979882;28;20193;-87
2022/01/13 04:11:30;;;;;;;50.73;22.87;;;-2.20;99.90;;;;;;4984902;28;20242;-87
2022/01/13 04:13:59;;;;;;;38.05;20.88;;;-2.20;99.90;;;;;;4988659;28;20191;-87
2022/01/13 04:16:31;;;;;;;39.30;19.58;;;-2.20;99.90;;;;;;4985567;28;20215;-87
2022/01/13 04:19:03;;;;;;;43.30;20.83;;;-2.30;99.90;;;;;;4988206;28;20176;-86
2022/01/13 04:21:29;;;;;;;32.65;16.85;;;-2.30;99.90;;;;;;4992677;28;20175;-87
2022/01/13 04:23:56;;;;;;;43.60;20.33;;;-2.40;99.90;;;;;;4988700;28;20202;-87
2022/01/13 04:26:28;;;;;;;34.47;18.15;;;-2.40;99.90;;;;;;4988214;28;20183;-88
2022/01/13 04:29:03;;;;;;;49.67;21.48;;;-2.60;99.90;;;;;;4996748;28;20215;-88
2022/01/13 04:31:29;;;;;;;35.38;19.23;;;-2.70;99.90;;;;;;5008388;28;20179;-90
2022/01/13 04:33:54;;;;;;;44.57;19.17;;;;;;;;;;4987738;28;20255;-89
2022/01/13 04:36:20;;;;;;;49.03;21.73;;;;;;;;;;4997345;28;20203;-89
2022/01/13 04:38:46;;;;;;;41.72;20.65;;;-2.70;99.90;;;;;;5017770;28;20417;-89
2022/01/13 04:41:14;;;;;;;41.13;21.83;;;;;;;;;;5001411;28;20508;-89
2022/01/13 04:43:43;;;;;;;44.75;21.98;;;;;;;;;;5017956;28;20164;-89
2022/01/13 04:46:09;;;;;;;40.83;19.67;;;;;;;;;;5018029;28;20199;-89
2022/01/13 04:48:34;;;;;;;41.63;21.05;;;-2.60;99.90;;;;;;5017720;28;20246;-89
2022/01/13 04:51:00;;;;;;;50.60;21.73;;;;;;;;;;5000805;28;20239;-88
2022/01/13 04:53:27;;;;;;;41.87;19.13;;;;;;;;;;5013752;28;20183;-89
2022/01/13 04:55:57;;;;;;;47.45;20.92;;;;;;;;;;4988264;28;20523;-91
2022/01/13 04:58:24;;;;;;;46.08;21.20;;;;;;;;;;4994599;28;20193;-89
2022/01/13 05:00:50;;;;;;;38.72;21.42;;;;;;;;;;4982597;28;20175;-89
2022/01/13 05:03:16;;;;;;;41.67;20.05;;;;;;;;;;4994470;28;20171;-87
2022/01/13 05:05:42;;;;;;;43.55;21.38;;;;;;;;;;5002040;28;20218;-84
2022/01/13 05:08:08;;;;;;;35.25;19.25;;;-2.80;99.90;;;;;;4992572;28;20814;-85
2022/01/13 05:10:33;;;;;;;45.17;22.63;;;-2.80;99.90;;;;;;4991221;28;20188;-85
2022/01/13 05:12:59;;;;;;;49.97;21.97;;;-2.80;99.90;;;;;;4996920;28;20188;-85
2022/01/13 05:15:27;;;;;;;56.08;28.75;;;-2.60;99.90;;;;;;4974892;28;20436;-87
2022/01/13 05:23:11;;;;;;;34.58;19.08;;;-2.40;99.90;;;;;;4977625;28;20326;-83
2022/01/13 05:25:38;;;;;;;42.45;20.05;;;-2.70;99.90;;;;;;4986800;28;20222;-84
2022/01/13 05:28:04;;;;;;;37.75;19.13;;;-2.90;99.90;;;;;;4978852;28;20192;-86
2022/01/13 05:30:30;;;;;;;45.30;20.00;;;-2.90;99.90;;;;;;4978717;28;20202;-84
2022/01/13 05:32:56;;;;;;;41.43;18.97;;;-2.90;99.90;;;;;;4979584;28;20508;-82
2022/01/13 05:35:23;;;;;;;42.90;20.00;;;-2.90;99.90;;;;;;4977165;28;20549;-85
2022/01/13 05:37:49;;;;;;;38.70;20.08;;;-2.90;99.90;;;;;;4977820;28;20257;-84
2022/01/13 05:40:15;;;;;;;43.87;21.30;;;;;;;;;;4994044;28;20180;-87
2022/01/13 05:42:41;;;;;;;39.03;17.63;;;-2.90;99.90;;;;;;4991274;28;20186;-85
2022/01/13 05:45:14;;;;;;;38.00;18.63;;;-2.90;99.90;;;;;;4978619;28;20270;-84
2022/01/13 05:47:41;;;;;;;40.45;19.33;;;-2.90;99.90;;;;;;4971096;28;20211;-85
2022/01/13 05:50:09;;;;;;;31.75;15.90;;;-2.90;99.90;;;;;;4977410;28;20191;-84
2022/01/13 05:52:35;;;;;;;35.40;17.27;;;-2.90;99.90;;;;;;4983641;28;20260;-85
2022/01/13 05:55:02;;;;;;;38.23;16.70;;;-2.90;99.90;;;;;;4974451;28;20329;-84
2022/01/13 05:57:27;;;;;;;33.75;17.30;;;-2.90;99.90;;;;;;4975940;28;20211;-85
2022/01/13 05:59:53;;;;;;;33.33;15.50;;;-2.90;99.90;;;;;;4974094;28;20183;-83
2022/01/13 06:02:18;;;;;;;30.10;14.30;;;-2.90;99.90;;;;;;4973231;28;20184;-83
2022/01/13 06:04:44;;;;;;;28.40;16.00;;;-2.90;99.90;;;;;;4977783;28;20195;-85
2022/01/13 06:07:10;;;;;;;31.50;15.97;;;-2.90;99.90;;;;;;4976289;28;20584;-84
2022/01/13 06:09:35;;;;;;;33.33;15.30;;;-3.00;99.90;;;;;;4980777;28;21007;-85
2022/01/13 06:12:03;;;;;;;33.40;14.63;;;-3.00;99.90;;;;;;4976796;28;20187;-84
2022/01/13 06:14:29;;;;;;;31.13;14.88;;;-3.00;99.90;;;;;;4985970;28;20218;-85
2022/01/13 06:16:55;;;;;;;35.00;17.35;;;-3.00;99.90;;;;;;4978652;28;20203;-83
2022/01/13 06:19:21;;;;;;;29.17;15.20;;;-3.00;99.90;;;;;;4977078;28;20179;-85
2022/01/13 06:21:48;;;;;;;38.03;18.20;;;-3.00;99.90;;;;;;4978026;28;20427;-83
2022/01/13 06:24:13;;;;;;;35.80;15.55;;;-3.00;99.90;;;;;;4977528;28;20221;-84
2022/01/13 06:26:40;;;;;;;34.17;16.70;;;;;;;;;;4977478;28;20274;-85
2022/01/13 06:29:05;;;;;;;38.10;17.45;;;-3.10;99.90;;;;;;4988459;28;21029;-85
2022/01/13 06:31:31;;;;;;;34.67;17.83;;;-3.00;99.90;;;;;;4976400;28;20291;-83
2022/01/13 06:33:56;;;;;;;34.30;17.43;;;-3.00;99.90;;;;;;4977296;28;20187;-84
2022/01/13 06:36:22;;;;;;;34.70;17.80;;;-3.00;99.90;;;;;;4977525;28;20318;-84
2022/01/13 06:38:50;;;;;;;32.23;16.37;;;-2.90;99.90;;;;;;4976280;28;20233;-84
2022/01/13 06:41:17;;;;;;;35.20;19.10;;;-3.00;99.90;;;;;;4978433;28;20447;-83
2022/01/13 06:43:43;;;;;;;35.50;18.80;;;-2.90;99.90;;;;;;4976809;28;20180;-85
2022/01/13 06:46:10;;;;;;;43.07;20.50;;;-2.90;99.90;;;;;;4976187;28;20211;-84
2022/01/13 06:48:36;;;;;;;40.65;22.02;;;-2.90;99.90;;;;;;4976528;28;20309;-85
2022/01/13 06:51:02;;;;;;;43.47;21.73;;;-2.90;99.90;;;;;;4973120;28;20282;-85
2022/01/13 06:53:27;;;;;;;41.90;21.27;;;-3.00;99.90;;;;;;4978060;28;20662;-85
2022/01/13 06:55:53;;;;;;;46.63;21.00;;;-3.00;99.90;;;;;;4972666;28;20211;-84
2022/01/13 06:58:18;;;;;;;51.17;21.17;;;-2.90;99.90;;;;;;4977670;28;20187;-83
2022/01/13 07:00:44;;;;;;;41.73;20.20;;;-2.90;99.90;;;;;;4974488;28;20187;-85
2022/01/13 07:03:10;;;;;;;37.00;18.50;;;-2.90;99.90;;;;;;4974734;28;20270;-85
2022/01/13 07:05:36;;;;;;;45.25;20.63;;;-2.90;99.90;;;;;;4973664;28;20204;-85
2022/01/13 07:08:02;;;;;;;94.10;34.83;;;-2.90;99.90;;;;;;4975229;28;20195;-84
2022/01/13 07:10:28;;;;;;;305.85;104.43;;;-2.90;99.90;;;;;;4976034;28;20471;-85
2022/01/13 07:12:54;;;;;;;149.77;56.03;;;;;;;;;;4989126;28;20183;-84
2022/01/13 07:15:20;;;;;;;101.43;43.22;;;-2.90;99.90;;;;;;4975968;28;20469;-85
2022/01/13 07:17:47;;;;;;;64.05;31.70;;;-2.90;99.90;;;;;;4989089;28;20180;-85
2022/01/13 07:20:13;;;;;;;46.25;26.88;;;-2.90;99.90;;;;;;4978977;28;20208;-84
2022/01/13 07:22:39;;;;;;;49.72;27.90;;;-2.90;99.90;;;;;;4977820;28;20196;-84
2022/01/13 07:25:09;;;;;;;50.80;27.98;;;-2.90;99.90;;;;;;4989376;28;20245;-84
2022/01/13 07:27:35;;;;;;;46.25;24.55;;;-2.80;99.90;;;;;;4975274;28;20195;-85
2022/01/13 07:30:00;;;;;;;53.47;27.70;;;-2.80;99.90;;;;;;4972704;28;20553;-86
2022/01/13 07:32:26;;;;;;;54.40;30.87;;;-2.70;99.90;;;;;;4973665;28;20439;-84
2022/01/13 07:34:51;;;;;;;49.47;26.23;;;-2.70;99.90;;;;;;4974078;28;20248;-87
2022/01/13 07:37:17;;;;;;;62.07;27.23;;;-2.70;99.90;;;;;;4971108;28;20222;-87
2022/01/13 07:39:44;;;;;;;51.67;26.40;;;-2.60;99.90;;;;;;4977418;28;20175;-87
2022/01/13 07:42:09;;;;;;;57.35;30.85;;;-2.60;99.90;;;;;;4972413;28;20720;-84
2022/01/13 07:44:35;;;;;;;73.37;39.17;;;-2.60;99.90;;;;;;4975571;28;20279;-85
2022/01/13 07:47:01;;;;;;;59.75;28.50;;;-2.60;99.90;;;;;;4968399;28;20270;-87
2022/01/13 07:49:27;;;;;;;53.67;25.53;;;-2.60;99.90;;;;;;4972609;28;20703;-84
2022/01/13 07:51:53;;;;;;;56.13;28.02;;;-2.40;99.90;;;;;;4972540;28;20549;-83
2022/01/13 07:54:19;;;;;;;65.90;27.47;;;-2.20;99.90;;;;;;4984593;28;20210;-84
2022/01/13 07:56:45;;;;;;;51.07;28.27;;;-2.10;99.90;;;;;;4978923;28;20753;-83
2022/01/13 07:59:10;;;;;;;62.23;30.00;;;-2.00;99.90;;;;;;4977265;28;20899;-85
2022/01/13 08:01:36;;;;;;;56.60;30.50;;;-1.90;99.90;;;;;;4978440;28;20276;-85
2022/01/13 08:04:01;;;;;;;58.63;28.80;;;-1.80;99.90;;;;;;4990949;28;20235;-85
2022/01/13 08:06:27;;;;;;;48.13;26.90;;;-1.80;99.90;;;;;;4973160;28;20194;-83
2022/01/13 08:08:52;;;;;;;53.17;25.63;;;-1.70;99.90;;;;;;4974461;28;20192;-83
2022/01/13 08:11:18;;;;;;;42.50;21.87;;;-1.70;99.90;;;;;;4972008;28;20183;-82
2022/01/13 08:13:44;;;;;;;43.63;24.63;;;-1.70;99.90;;;;;;4977529;28;20184;-83
2022/01/13 08:16:10;;;;;;;46.47;25.35;;;-1.70;99.90;;;;;;4986056;28;20213;-82
2022/01/13 08:21:23;;;;;;;47.03;22.88;;;-1.90;99.90;;;;;;4977573;28;20644;-83
2022/01/13 08:23:50;;;;;;;44.45;20.90;;;-1.90;99.90;;;;;;4974815;28;20664;-86
2022/01/13 08:26:16;;;;;;;58.20;30.63;;;;;;;;;;4981006;28;20479;-85
2022/01/13 08:28:41;;;;;;;49.67;24.90;;;-1.60;99.90;;;;;;4987323;28;20215;-85
2022/01/13 08:31:07;;;;;;;49.53;24.50;;;;;;;;;;4978697;28;20443;-89
2022/01/13 08:33:33;;;;;;;50.03;25.53;;;-1.20;99.90;;;;;;4992027;28;20212;-87
2022/01/13 08:35:59;;;;;;;44.93;25.30;;;-1.00;99.90;;;;;;4993591;28;20462;-85
2022/01/13 08:38:25;;;;;;;42.87;23.60;;;;;;;;;;4994081;28;20320;-87
2022/01/13 08:40:59;;;;;;;48.88;25.42;;;-0.60;99.90;;;;;;4996427;28;20414;-88
2022/01/13 08:43:27;;;;;;;44.55;22.58;;;-0.40;99.90;;;;;;4991982;28;20183;-90
2022/01/13 08:45:52;;;;;;;50.40;23.42;;;3.00;99.90;;;;;;5001654;28;20207;-89
2022/01/13 08:48:18;;;;;;;44.80;23.90;;;0.00;99.90;;;;;;4992108;28;20187;-87
2022/01/13 08:50:45;;;;;;;45.03;23.33;;;0.30;99.90;;;;;;4981007;28;20417;-88
2022/01/13 08:53:10;;;;;;;45.50;22.25;;;;;;;;;;4993957;28;20422;-88
2022/01/13 08:55:37;;;;;;;46.50;22.60;;;;;;;;;;4987645;28;20668;-87
2022/01/13 08:58:03;;;;;;;45.58;23.05;;;0.70;99.90;;;;;;4984418;28;20410;-87
2022/01/13 09:00:28;;;;;;;48.60;24.98;;;0.70;99.90;;;;;;4994871;28;20171;-88
2022/01/13 09:02:54;;;;;;;39.20;22.23;;;;;;;;;;4994812;28;20186;-88
2022/01/13 09:05:21;;;;;;;42.20;22.05;;;1.20;99.90;;;;;;4991298;28;20727;-88
2022/01/13 09:07:47;;;;;;;35.25;21.23;;;1.60;99.90;;;;;;4987137;28;20180;-88
2022/01/13 09:10:14;;;;;;;35.47;21.20;;;2.10;99.90;;;;;;4994583;28;20252;-88
2022/01/13 09:12:40;;;;;;;38.33;22.02;;;2.40;99.90;;;;;;4996826;28;20248;-87
2022/01/13 09:15:18;;;;;;;36.80;20.10;;;2.70;99.90;;;;;;4993999;28;20198;-88
2022/01/13 09:17:46;;;;;;;38.95;21.23;;;3.10;99.90;;;;;;4990789;28;20639;-86
2022/01/13 09:20:15;;;;;;;35.05;20.55;;;3.70;99.90;;;;;;4983433;28;20600;-86
2022/01/13 09:22:41;;;;;;;29.58;18.10;;;4.00;99.90;;;;;;4995644;28;20195;-87
2022/01/13 09:25:10;;;;;;;36.57;19.20;;;4.30;99.90;;;;;;4996278;28;20208;-87
2022/01/13 09:27:38;;;;;;;38.00;20.73;;;4.60;99.90;;;;;;4987532;28;20185;-88
2022/01/13 09:30:04;;;;;;;34.15;20.00;;;;;;;;;;4983715;28;20619;-87
2022/01/13 09:32:30;;;;;;;40.67;19.65;;;4.80;99.90;;;;;;4989045;28;20188;-88
2022/01/13 09:34:56;;;;;;;28.23;17.47;;;;;;;;;;4975185;28;20226;-88
2022/01/13 09:37:24;;;;;;;33.00;18.90;;;4.50;99.90;;;;;;4976122;28;20246;-88
2022/01/13 09:39:49;;;;;;;30.83;18.98;;;4.40;99.90;;;;;;4989216;28;20438;-87
2022/01/13 09:42:16;;;;;;;31.13;18.07;;;4.80;99.90;;;;;;4996543;28;20235;-87
2022/01/13 09:44:42;;;;;;;28.67;16.27;;;4.80;99.90;;;;;;4992380;28;20202;-88
2022/01/13 09:47:07;;;;;;;32.15;18.25;;;5.00;99.90;;;;;;4974574;28;20640;-87
2022/01/13 09:49:33;;;;;;;33.77;17.80;;;;;;;;;;4990649;28;20192;-88
2022/01/13 09:51:59;;;;;;;29.33;17.08;;;5.20;99.90;;;;;;4990364;28;20667;-87
2022/01/13 09:54:25;;;;;;;27.90;15.10;;;;;;;;;;4992824;28;20364;-88
2022/01/13 09:56:51;;;;;;;27.20;15.90;;;;;;;;;;4990924;28;20191;-87
2022/01/13 09:59:17;;;;;;;33.70;19.93;;;;;;;;;;4989228;28;20422;-87
2022/01/13 10:01:43;;;;;;;35.30;16.70;;;;;;;;;;4990328;28;20427;-87
2022/01/13 10:04:08;;;;;;;31.73;18.23;;;5.70;99.90;;;;;;5001048;28;20529;-88
2022/01/13 10:06:42;;;;;;;23.43;13.30;;;5.80;99.90;;;;;;4986998;28;20498;-86
2022/01/13 10:09:08;;;;;;;19.95;13.43;;;5.30;99.90;;;;;;4982132;28;20183;-86
2022/01/13 10:11:48;;;;;;;20.47;12.07;;;4.80;99.90;;;;;;4982325;28;20187;-86
2022/01/13 10:16:56;;;;;;;31.08;13.00;;;4.40;99.90;;;;;;4978954;28;20211;-88
2022/01/13 10:19:27;;;;;;;24.75;13.65;;;4.40;99.90;;;;;;4990155;28;20241;-87
2022/01/13 10:22:21;;;;;;;24.90;13.90;;;3.70;99.90;;;;;;4983356;28;20186;-87
2022/01/13 10:24:52;;;;;;;17.40;11.13;;;3.60;99.90;;;;;;4971756;28;20709;-85
2022/01/13 10:27:33;;;;;;;22.95;12.40;;;3.50;99.90;;;;;;4987253;28;20585;-86
2022/01/13 10:30:14;;;;;;;23.02;13.52;;;3.50;99.90;;;;;;4975744;28;20211;-87
2022/01/13 10:32:41;;;;;;;17.75;9.98;;;3.50;99.90;;;;;;4975199;28;20706;-87
2022/01/13 10:35:13;;;;;;;19.05;10.43;;;3.80;99.90;;;;;;4989744;28;20226;-87
2022/01/13 10:37:41;;;;;;;16.40;11.20;;;3.50;99.90;;;;;;4980203;28;20208;-87
2022/01/13 10:40:16;;;;;;;18.00;10.88;;;3.20;99.90;;;;;;4973428;28;20183;-87
2022/01/13 10:45:52;;;;;;;21.48;10.73;;;3.10;99.90;;;;;;4977664;28;20615;-88
2022/01/13 10:48:21;;;;;;;19.70;12.20;;;3.00;99.90;;;;;;4973584;28;20194;-88
2022/01/13 10:51:04;;;;;;;25.63;11.65;;;3.00;99.90;;;;;;4980237;28;20273;-89
2022/01/13 10:53:39;;;;;;;14.85;10.23;;;3.50;99.90;;;;;;4981450;28;20194;-88
2022/01/13 10:56:07;;;;;;;16.30;9.57;;;3.80;99.90;;;;;;4970958;28;20752;-88
2022/01/13 10:58:41;;;;;;;20.25;10.52;;;3.60;99.90;;;;;;4969045;28;20761;-88
2022/01/13 11:01:10;;;;;;;16.17;9.90;;;3.90;99.90;;;;;;4981065;28;20260;-89
2022/01/13 11:03:40;;;;;;;18.00;11.13;;;4.10;99.90;;;;;;4973596;28;20191;-85
2022/01/13 11:06:09;;;;;;;17.33;9.07;;;4.40;99.90;;;;;;4972053;28;20217;-86
2022/01/13 11:08:46;;;;;;;11.60;7.22;;;3.80;99.90;;;;;;4980560;28;20660;-87
2022/01/13 11:11:20;;;;;;;15.48;8.70;;;3.80;99.90;;;;;;4971400;28;20674;-87
2022/01/13 11:13:52;;;;;;;15.30;9.60;;;3.70;99.90;;;;;;4978064;28;20236;-90
2022/01/13 11:16:18;;;;;;;15.40;8.82;;;3.70;99.90;;;;;;4990332;28;20231;-88
2022/01/13 11:18:43;;;;;;;16.97;8.57;;;;;;;;;;4972358;28;20667;-87
2022/01/13 11:21:09;;;;;;;20.47;10.17;;;3.60;99.90;;;;;;4971266;28;20511;-88
2022/01/13 11:23:38;;;;;;;17.43;10.90;;;3.70;99.90;;;;;;4978126;28;20466;-88
2022/01/13 11:26:05;;;;;;;16.70;9.85;;;4.00;99.90;;;;;;4992337;28;20198;-87
2022/01/13 11:28:31;;;;;;;17.65;9.70;;;;;;;;;;4987425;28;20179;-91
2022/01/13 11:30:57;;;;;;;16.50;10.48;;;;;;;;;;4992096;28;20168;-90
2022/01/13 11:33:23;;;;;;;15.17;9.40;;;;;;;;;;4995294;28;20615;-90
2022/01/13 11:35:57;;;;;;;15.27;9.00;;;4.10;99.90;;;;;;4991203;28;20556;-89
2022/01/13 11:38:29;;;;;;;20.90;11.60;;;4.10;99.90;;;;;;4982001;28;20927;-89
2022/01/13 11:41:04;;;;;;;19.00;11.65;;;4.10;99.90;;;;;;4981785;28;20269;-89
2022/01/13 11:43:36;;;;;;;22.70;11.20;;;4.20;99.90;;;;;;4992798;28;20271;-89
2022/01/13 11:46:14;;;;;;;20.15;10.88;;;4.30;99.90;;;;;;4980279;28;20212;-89
2022/01/13 11:48:57;;;;;;;24.27;12.73;;;4.30;99.90;;;;;;4981053;28;20674;-89
2022/01/13 11:51:23;;;;;;;17.40;11.95;;;4.40;99.90;;;;;;4981563;28;20279;-90
2022/01/13 11:53:55;;;;;;;18.97;12.80;;;4.40;99.90;;;;;;4982607;28;20263;-89
2022/01/13 11:56:22;;;;;;;15.93;11.35;;;4.50;99.90;;;;;;4980546;28;20243;-89
2022/01/13 11:58:48;;;;;;;18.65;11.45;;;4.50;99.90;;;;;;4978274;28;20308;-89
2022/01/13 12:01:30;;;;;;;24.63;12.20;;;4.50;99.90;;;;;;4983518;28;20221;-89
2022/01/13 12:03:59;;;;;;;24.35;12.02;;;4.40;99.90;;;;;;4977168;28;20931;-90
2022/01/13 12:06:46;;;;;;;19.83;12.05;;;4.40;99.90;;;;;;4977373;28;20656;-90
2022/01/13 12:09:32;;;;;;;22.30;12.75;;;4.40;99.90;;;;;;4989294;28;20183;-89
2022/01/13 12:11:59;;;;;;;24.45;12.77;;;4.40;99.90;;;;;;4972375;28;20201;-89
2022/01/13 12:14:28;;;;;;;18.85;12.52;;;4.40;99.90;;;;;;4978013;28;20601;-90
2022/01/13 12:17:12;;;;;;;18.92;11.15;;;4.50;99.90;;;;;;4985832;28;20565;-90
2022/01/13 12:19:43;;;;;;;23.75;13.93;;;4.60;99.90;;;;;;4979639;28;20217;-90
2022/01/13 12:22:44;;;;;;;23.55;13.18;;;4.60;99.90;;;;;;4992104;28;20175;-91
2022/01/13 12:25:17;;;;;;;23.15;12.18;;;4.80;99.90;;;;;;4979310;28;20203;-89
2022/01/13 12:27:45;;;;;;;33.05;18.92;;;4.90;99.90;;;;;;4993745;28;20180;-90
2022/01/13 12:30:17;;;;;;;24.80;15.70;;;5.00;99.90;;;;;;4985925;28;20184;-90
2022/01/13 12:32:51;;;;;;;21.50;14.75;;;5.10;99.90;;;;;;4976573;28;20218;-90
2022/01/13 12:35:39;;;;;;;31.38;15.07;;;5.20;99.90;;;;;;4979751;28;20203;-89
2022/01/13 12:38:29;;;;;;;39.25;19.75;;;5.20;99.90;;;;;;4983221;28;20272;-89
2022/01/13 12:41:13;;;;;;;22.30;14.38;;;5.20;99.90;;;;;;4979974;28;20680;-90
2022/01/13 12:46:11;;;;;;;21.17;13.75;;;5.30;99.90;;;;;;4979307;28;20664;-90
2022/01/13 12:48:41;;;;;;;24.52;13.13;;;5.20;99.90;;;;;;4975801;28;20168;-90
2022/01/13 12:51:07;;;;;;;24.58;11.80;;;5.40;99.90;;;;;;4978955;28;20723;-89
2022/01/13 12:53:36;;;;;;;23.02;12.82;;;5.50;99.90;;;;;;4979035;28;20841;-87
2022/01/13 12:56:24;;;;;;;24.00;13.52;;;5.60;99.90;;;;;;4985004;28;20211;-88
2022/01/13 12:58:55;;;;;;;18.95;12.35;;;5.60;99.90;;;;;;4992022;28;20188;-88
2022/01/13 13:01:29;;;;;;;23.50;11.43;;;5.60;99.90;;;;;;4979094;28;20172;-87
2022/01/13 13:04:04;;;;;;;18.48;10.43;;;5.30;99.90;;;;;;4976203;28;20738;-87
2022/01/13 13:06:35;;;;;;;17.77;11.02;;;5.30;99.90;;;;;;4980265;28;20701;-88
2022/01/13 13:09:09;;;;;;;20.17;10.70;;;5.20;99.90;;;;;;4978456;28;20186;-88
2022/01/13 13:11:40;;;;;;;18.50;10.90;;;5.20;99.90;;;;;;4979985;28;20167;-87
2022/01/13 13:14:14;;;;;;;21.80;11.00;;;5.10;99.90;;;;;;4976840;28;20823;-87
2022/01/13 13:16:48;;;;;;;18.75;10.63;;;5.00;99.90;;;;;;4974124;28;20304;-88
2022/01/13 13:19:14;;;;;;;19.73;12.07;;;5.10;99.90;;;;;;4982405;28;20174;-88
2022/01/13 13:21:41;;;;;;;20.03;10.43;;;5.00;99.90;;;;;;4977502;28;20525;-88
2022/01/13 13:24:06;;;;;;;16.70;10.30;;;5.10;99.90;;;;;;4990559;28;20537;-88
2022/01/13 13:26:32;;;;;;;23.50;12.07;;;5.10;99.90;;;;;;4977884;28;20260;-87
2022/01/13 13:29:00;;;;;;;18.80;10.57;;;5.10;99.90;;;;;;4976730;28;20650;-87
2022/01/13 13:31:28;;;;;;;34.30;16.45;;;5.10;99.90;;;;;;4976983;28;20483;-88
2022/01/13 13:34:05;;;;;;;26.55;10.95;;;4.90;99.90;;;;;;4978080;28;20226;-88
2022/01/13 13:36:34;;;;;;;16.00;11.23;;;4.90;99.90;;;;;;4993557;28;20619;-87
2022/01/13 13:39:09;;;;;;;14.35;10.00;;;4.90;99.90;;;;;;4985243;28;20187;-87